createdAt,value
2022-07-28T00:11:06.607Z,0
2022-07-28T00:25:06.594Z,0
2022-07-28T00:39:06.611Z,0
2022-07-28T00:53:06.647Z,0
2022-07-28T01:07:06.634Z,0.2
2022-07-28T01:21:06.653Z,0
2022-07-28T01:35:06.652Z,0
2022-07-28T01:49:06.709Z,0
2022-07-28T02:03:06.697Z,1.0
2022-07-28T02:17:06.693Z,0.8
2022-07-28T02:31:06.761Z,0.6
2022-07-28T02:45:06.706Z,0.4
2022-07-28T02:59:06.737Z,0.2
2022-07-28T03:13:06.742Z,0.8
2022-07-28T03:27:06.883Z,0.8
2022-07-28T03:41:06.753Z,0
2022-07-28T03:56:06.768Z,0.4
2022-07-28T04:11:06.766Z,0.4
2022-07-28T04:27:06.806Z,1.8
2022-07-28T04:42:06.777Z,1.0
2022-07-28T04:57:07.572Z,0
2022-07-28T05:12:06.772Z,0
2022-07-28T05:27:06.818Z,0
2022-07-28T05:42:06.784Z,1.2
2022-07-28T05:58:06.803Z,0.6
2022-07-28T06:13:06.805Z,0.8
2022-07-28T06:29:06.795Z,0.8
2022-07-28T06:44:11.982Z,1.1
2022-07-28T06:59:06.882Z,0.8
2022-07-28T07:14:06.893Z,1.1
2022-07-28T07:29:06.894Z,1.1
2022-07-28T07:44:06.902Z,0.8
2022-07-28T07:59:06.903Z,0.8
2022-07-28T08:14:06.877Z,1.0
2022-07-28T08:29:06.899Z,1.8
2022-07-28T08:44:06.895Z,0.8
2022-07-28T08:59:07.055Z,0.8
2022-07-28T09:15:07.068Z,0.4
2022-07-28T09:30:07.074Z,0.8
2022-07-28T09:45:22.176Z,1.7
2022-07-28T10:00:07.121Z,2.0
2022-07-28T10:15:07.115Z,1.8
2022-07-28T10:31:07.172Z,1.2
2022-07-28T10:47:07.176Z,2.1
2022-07-28T11:03:11.819Z,1.4
2022-07-28T11:18:07.171Z,1.9
2022-07-28T11:34:07.168Z,1.5
2022-07-28T11:49:07.201Z,2.6
2022-07-28T12:05:07.202Z,1.5
2022-07-28T12:21:07.210Z,1.5
2022-07-28T12:37:07.216Z,2.3
2022-07-28T12:52:07.270Z,1.7
2022-07-28T13:07:07.281Z,1.7
2022-07-28T13:22:09.130Z,1.6
2022-07-28T13:37:07.280Z,1.4
2022-07-28T13:52:07.328Z,1.3
2022-07-28T14:07:07.361Z,1.0
2022-07-28T14:22:12.454Z,1.0
2022-07-28T14:37:08.728Z,1.9
2022-07-28T14:52:07.444Z,1.4
2022-07-28T15:07:07.379Z,0.8
2022-07-28T15:22:07.384Z,1.5
2022-07-28T15:37:07.512Z,1.2
2022-07-28T15:52:07.407Z,1.2
2022-07-28T16:07:07.452Z,0.8
2022-07-28T16:22:07.527Z,0.8
2022-07-28T16:37:07.527Z,0.9
2022-07-28T16:52:07.530Z,0.6
2022-07-28T17:07:07.522Z,1.0
2022-07-28T17:22:07.535Z,0.2
2022-07-28T17:37:07.544Z,0.2
2022-07-28T17:52:07.542Z,0
2022-07-28T18:07:07.539Z,0.6
2022-07-28T18:22:07.599Z,0
2022-07-28T18:38:07.584Z,0
2022-07-28T18:53:07.614Z,0
2022-07-28T19:08:07.636Z,0
2022-07-28T19:23:07.659Z,0
2022-07-28T19:38:07.647Z,0
2022-07-28T19:52:07.624Z,0
2022-07-28T20:06:07.642Z,0
2022-07-28T20:20:07.642Z,0
2022-07-28T20:34:07.645Z,0.8
2022-07-28T20:48:07.667Z,0.8
2022-07-28T21:02:07.707Z,0
2022-07-28T21:16:07.743Z,0
2022-07-28T21:30:07.777Z,0.8
2022-07-28T21:44:07.729Z,0.4
2022-07-28T21:58:07.727Z,0.8
2022-07-28T22:12:07.853Z,0.2
2022-07-28T22:26:07.894Z,0
2022-07-28T22:40:07.911Z,0
2022-07-28T22:58:59.444Z,0.2
2022-07-28T23:12:59.391Z,0
2022-07-28T23:26:59.491Z,0
2022-07-28T23:40:59.773Z,0
2022-07-28T23:55:00.035Z,0.5
